sensor_id;sensor_type;location;lat;lon;timestamp;temperature;humidity
19972;DHT22;10147;16.402;102.848;2023-04-25T00:02:22;27.30;99.90
19972;DHT22;10147;16.402;102.848;2023-04-25T00:04:54;27.40;99.90
19972;DHT22;10147;16.402;102.848;2023-04-25T00:07:27;27.50;99.90
19972;DHT22;10147;16.402;102.848;2023-04-25T00:09:58;27.60;99.90
19972;DHT22;10147;16.402;102.848;2023-04-25T00:12:28;27.60;99.90
19972;DHT22;10147;16.402;102.848;2023-04-25T00:14:58;27.60;99.90
19972;DHT22;10147;16.402;102.848;2023-04-25T00:17:29;27.70;99.90
19972;DHT22;10147;16.402;102.848;2023-04-25T00:20:00;27.60;99.90
19972;DHT22;10147;16.402;102.848;2023-04-25T00:22:34;27.70;99.90
19972;DHT22;10147;16.402;102.848;2023-04-25T00:25:06;27.80;99.90
19972;DHT22;10147;16.402;102.848;2023-04-25T00:27:36;27.90;99.90
19972;DHT22;10147;16.402;102.848;2023-04-25T00:30:09;27.90;99.90
19972;DHT22;10147;16.402;102.848;2023-04-25T00:32:38;28.00;99.90
19972;DHT22;10147;16.402;102.848;2023-04-25T00:35:09;28.10;99.90
19972;DHT22;10147;16.402;102.848;2023-04-25T00:37:40;28.10;99.90
19972;DHT22;10147;16.402;102.848;2023-04-25T00:40:11;28.10;99.90
19972;DHT22;10147;16.402;102.848;2023-04-25T00:42:41;28.10;99.90
19972;DHT22;10147;16.402;102.848;2023-04-25T00:45:14;28.10;99.90
19972;DHT22;10147;16.402;102.848;2023-04-25T00:47:45;28.20;99.90
19972;DHT22;10147;16.402;102.848;2023-04-25T00:50:15;28.30;99.90
19972;DHT22;10147;16.402;102.848;2023-04-25T00:52:46;28.30;99.90
19972;DHT22;10147;16.402;102.848;2023-04-25T00:55:16;28.50;99.90
19972;DHT22;10147;16.402;102.848;2023-04-25T00:57:46;28.50;99.90
19972;DHT22;10147;16.402;102.848;2023-04-25T01:00:16;28.60;99.90
19972;DHT22;10147;16.402;102.848;2023-04-25T01:02:47;28.60;99.90
19972;DHT22;10147;16.402;102.848;2023-04-25T01:05:18;28.70;99.90
19972;DHT22;10147;16.402;102.848;2023-04-25T01:07:49;28.70;99.90
19972;DHT22;10147;16.402;102.848;2023-04-25T01:10:19;28.70;99.90
19972;DHT22;10147;16.402;102.848;2023-04-25T01:12:50;28.80;99.90
19972;DHT22;10147;16.402;102.848;2023-04-25T01:15:19;29.00;99.90
19972;DHT22;10147;16.402;102.848;2023-04-25T01:17:49;29.00;99.90
19972;DHT22;10147;16.402;102.848;2023-04-25T01:20:22;29.00;99.90
19972;DHT22;10147;16.402;102.848;2023-04-25T01:22:57;29.10;99.90
19972;DHT22;10147;16.402;102.848;2023-04-25T01:25:27;29.10;99.90
19972;DHT22;10147;16.402;102.848;2023-04-25T01:27:58;29.10;99.90
19972;DHT22;10147;16.402;102.848;2023-04-25T01:30:29;29.20;99.90
19972;DHT22;10147;16.402;102.848;2023-04-25T01:32:59;29.30;99.90
19972;DHT22;10147;16.402;102.848;2023-04-25T01:35:30;29.40;99.90
19972;DHT22;10147;16.402;102.848;2023-04-25T01:38:01;29.60;99.90
19972;DHT22;10147;16.402;102.848;2023-04-25T01:40:33;29.70;99.90
19972;DHT22;10147;16.402;102.848;2023-04-25T01:43:04;29.70;99.90
19972;DHT22;10147;16.402;102.848;2023-04-25T01:45:34;29.90;99.90
19972;DHT22;10147;16.402;102.848;2023-04-25T01:48:07;29.90;99.90
19972;DHT22;10147;16.402;102.848;2023-04-25T01:50:38;29.90;99.90
19972;DHT22;10147;16.402;102.848;2023-04-25T01:53:10;30.00;99.90
19972;DHT22;10147;16.402;102.848;2023-04-25T01:55:45;30.00;99.90
19972;DHT22;10147;16.402;102.848;2023-04-25T01:58:18;30.10;99.90
19972;DHT22;10147;16.402;102.848;2023-04-25T02:01:08;30.20;99.90
19972;DHT22;10147;16.402;102.848;2023-04-25T02:03:47;30.20;99.90
19972;DHT22;10147;16.402;102.848;2023-04-25T02:06:31;30.30;99.90
19972;DHT22;10147;16.402;102.848;2023-04-25T02:09:01;30.50;99.90
19972;DHT22;10147;16.402;102.848;2023-04-25T02:11:34;30.60;99.90
19972;DHT22;10147;16.402;102.848;2023-04-25T02:14:24;30.70;99.90
19972;DHT22;10147;16.402;102.848;2023-04-25T02:17:14;30.80;99.90
19972;DHT22;10147;16.402;102.848;2023-04-25T02:19:45;30.80;99.90
19972;DHT22;10147;16.402;102.848;2023-04-25T02:22:19;30.80;99.90
19972;DHT22;10147;16.402;102.848;2023-04-25T02:24:50;31.00;99.90
19972;DHT22;10147;16.402;102.848;2023-04-25T02:27:20;31.00;99.90
19972;DHT22;10147;16.402;102.848;2023-04-25T02:29:50;31.00;99.90
19972;DHT22;10147;16.402;102.848;2023-04-25T02:32:20;31.10;99.90
19972;DHT22;10147;16.402;102.848;2023-04-25T02:34:49;31.10;99.90
19972;DHT22;10147;16.402;102.848;2023-04-25T02:37:19;31.30;99.90
19972;DHT22;10147;16.402;102.848;2023-04-25T02:39:49;31.40;99.90
19972;DHT22;10147;16.402;102.848;2023-04-25T02:42:19;31.40;99.90
19972;DHT22;10147;16.402;102.848;2023-04-25T02:44:50;31.40;99.90
19972;DHT22;10147;16.402;102.848;2023-04-25T02:47:20;31.40;99.90
19972;DHT22;10147;16.402;102.848;2023-04-25T02:49:50;31.70;99.90
19972;DHT22;10147;16.402;102.848;2023-04-25T02:52:20;31.80;99.90
19972;DHT22;10147;16.402;102.848;2023-04-25T02:54:58;32.00;99.90
19972;DHT22;10147;16.402;102.848;2023-04-25T02:57:29;32.00;99.90
19972;DHT22;10147;16.402;102.848;2023-04-25T02:59:58;32.10;99.90
19972;DHT22;10147;16.402;102.848;2023-04-25T03:02:28;32.10;99.90
19972;DHT22;10147;16.402;102.848;2023-04-25T03:04:58;32.10;99.90
19972;DHT22;10147;16.402;102.848;2023-04-25T03:07:28;32.20;99.90
19972;DHT22;10147;16.402;102.848;2023-04-25T03:09:58;32.40;99.90
19972;DHT22;10147;16.402;102.848;2023-04-25T03:12:33;32.50;99.90
19972;DHT22;10147;16.402;102.848;2023-04-25T03:15:04;32.40;99.90
19972;DHT22;10147;16.402;102.848;2023-04-25T03:17:35;32.60;99.90
19972;DHT22;10147;16.402;102.848;2023-04-25T03:20:06;32.70;99.90
19972;DHT22;10147;16.402;102.848;2023-04-25T03:22:37;32.70;99.90
19972;DHT22;10147;16.402;102.848;2023-04-25T03:25:07;32.80;99.90
19972;DHT22;10147;16.402;102.848;2023-04-25T03:27:37;33.10;99.90
19972;DHT22;10147;16.402;102.848;2023-04-25T03:30:07;33.30;99.90
19972;DHT22;10147;16.402;102.848;2023-04-25T03:32:39;33.40;99.90
19972;DHT22;10147;16.402;102.848;2023-04-25T03:35:09;33.50;99.90
19972;DHT22;10147;16.402;102.848;2023-04-25T03:37:39;33.60;99.90
19972;DHT22;10147;16.402;102.848;2023-04-25T03:40:11;33.60;99.90
19972;DHT22;10147;16.402;102.848;2023-04-25T03:43:00;33.70;99.90
19972;DHT22;10147;16.402;102.848;2023-04-25T03:45:31;33.80;99.90
19972;DHT22;10147;16.402;102.848;2023-04-25T03:48:01;33.90;99.90
19972;DHT22;10147;16.402;102.848;2023-04-25T03:50:31;34.00;99.90
19972;DHT22;10147;16.402;102.848;2023-04-25T03:53:01;33.90;99.90
19972;DHT22;10147;16.402;102.848;2023-04-25T03:55:43;34.10;99.90
19972;DHT22;10147;16.402;102.848;2023-04-25T03:58:13;34.20;99.90
19972;DHT22;10147;16.402;102.848;2023-04-25T04:00:43;34.40;99.90
19972;DHT22;10147;16.402;102.848;2023-04-25T04:03:13;34.30;99.90
19972;DHT22;10147;16.402;102.848;2023-04-25T04:05:43;34.30;99.90
19972;DHT22;10147;16.402;102.848;2023-04-25T04:08:14;34.40;99.90
19972;DHT22;10147;16.402;102.848;2023-04-25T04:10:44;34.40;99.90
19972;DHT22;10147;16.402;102.848;2023-04-25T04:13:14;34.40;99.90
19972;DHT22;10147;16.402;102.848;2023-04-25T04:15:45;34.60;99.90
19972;DHT22;10147;16.402;102.848;2023-04-25T04:18:18;34.70;99.90
19972;DHT22;10147;16.402;102.848;2023-04-25T04:20:48;34.90;99.90
19972;DHT22;10147;16.402;102.848;2023-04-25T04:23:18;34.80;99.90
19972;DHT22;10147;16.402;102.848;2023-04-25T04:25:49;34.90;99.90
19972;DHT22;10147;16.402;102.848;2023-04-25T04:28:38;34.90;99.90
19972;DHT22;10147;16.402;102.848;2023-04-25T04:31:18;35.20;99.90
19972;DHT22;10147;16.402;102.848;2023-04-25T04:33:49;35.30;99.90
19972;DHT22;10147;16.402;102.848;2023-04-25T04:36:20;35.20;99.90
19972;DHT22;10147;16.402;102.848;2023-04-25T04:38:52;35.20;99.90
19972;DHT22;10147;16.402;102.848;2023-04-25T04:41:36;35.10;99.90
19972;DHT22;10147;16.402;102.848;2023-04-25T04:44:25;35.30;99.90
19972;DHT22;10147;16.402;102.848;2023-04-25T04:47:15;35.00;99.90
19972;DHT22;10147;16.402;102.848;2023-04-25T04:50:08;35.20;99.90
19972;DHT22;10147;16.402;102.848;2023-04-25T04:52:59;35.60;99.90
19972;DHT22;10147;16.402;102.848;2023-04-25T04:55:49;35.80;99.90
19972;DHT22;10147;16.402;102.848;2023-04-25T04:58:30;35.70;99.90
19972;DHT22;10147;16.402;102.848;2023-04-25T05:01:13;35.70;99.90
19972;DHT22;10147;16.402;102.848;2023-04-25T05:04:05;35.90;99.90
19972;DHT22;10147;16.402;102.848;2023-04-25T05:06:55;35.90;99.90
19972;DHT22;10147;16.402;102.848;2023-04-25T05:09:45;35.60;99.90
19972;DHT22;10147;16.402;102.848;2023-04-25T05:12:33;35.90;99.90
19972;DHT22;10147;16.402;102.848;2023-04-25T05:15:24;35.90;99.90
19972;DHT22;10147;16.402;102.848;2023-04-25T05:18:16;36.10;99.90
19972;DHT22;10147;16.402;102.848;2023-04-25T05:21:06;36.30;99.90
19972;DHT22;10147;16.402;102.848;2023-04-25T05:23:55;36.40;99.90
19972;DHT22;10147;16.402;102.848;2023-04-25T05:26:45;36.40;99.90
19972;DHT22;10147;16.402;102.848;2023-04-25T05:29:27;36.30;99.90
19972;DHT22;10147;16.402;102.848;2023-04-25T05:32:14;36.50;99.90
19972;DHT22;10147;16.402;102.848;2023-04-25T05:34:47;36.40;99.90
19972;DHT22;10147;16.402;102.848;2023-04-25T05:37:23;36.30;99.90
19972;DHT22;10147;16.402;102.848;2023-04-25T05:39:56;36.50;99.90
19972;DHT22;10147;16.402;102.848;2023-04-25T05:42:46;36.50;99.90
19972;DHT22;10147;16.402;102.848;2023-04-25T05:45:28;36.60;99.90
19972;DHT22;10147;16.402;102.848;2023-04-25T05:48:18;36.70;99.90
19972;DHT22;10147;16.402;102.848;2023-04-25T05:50:58;36.90;99.90
19972;DHT22;10147;16.402;102.848;2023-04-25T05:53:47;37.10;99.90
19972;DHT22;10147;16.402;102.848;2023-04-25T05:56:18;36.70;99.90
19972;DHT22;10147;16.402;102.848;2023-04-25T05:58:51;36.90;99.90
19972;DHT22;10147;16.402;102.848;2023-04-25T06:01:23;36.80;99.90
19972;DHT22;10147;16.402;102.848;2023-04-25T06:03:52;37.00;99.90
19972;DHT22;10147;16.402;102.848;2023-04-25T06:06:23;36.80;99.90
19972;DHT22;10147;16.402;102.848;2023-04-25T06:08:55;37.10;99.90
19972;DHT22;10147;16.402;102.848;2023-04-25T06:11:25;36.80;99.90
19972;DHT22;10147;16.402;102.848;2023-04-25T06:13:55;37.10;99.90
19972;DHT22;10147;16.402;102.848;2023-04-25T06:16:25;37.30;99.90
19972;DHT22;10147;16.402;102.848;2023-04-25T06:18:56;37.20;99.90
19972;DHT22;10147;16.402;102.848;2023-04-25T06:21:26;36.90;99.90
19972;DHT22;10147;16.402;102.848;2023-04-25T06:23:59;36.70;99.90
19972;DHT22;10147;16.402;102.848;2023-04-25T06:26:29;36.90;99.90
19972;DHT22;10147;16.402;102.848;2023-04-25T06:28:59;36.90;99.90
19972;DHT22;10147;16.402;102.848;2023-04-25T06:31:29;36.90;99.90
19972;DHT22;10147;16.402;102.848;2023-04-25T06:34:02;37.30;99.90
19972;DHT22;10147;16.402;102.848;2023-04-25T06:36:36;37.30;99.90
19972;DHT22;10147;16.402;102.848;2023-04-25T06:39:08;37.40;99.90
19972;DHT22;10147;16.402;102.848;2023-04-25T06:41:39;37.50;99.90
19972;DHT22;10147;16.402;102.848;2023-04-25T06:44:28;37.50;99.90
19972;DHT22;10147;16.402;102.848;2023-04-25T06:46:59;37.60;99.90
19972;DHT22;10147;16.402;102.848;2023-04-25T06:49:32;37.90;99.90
19972;DHT22;10147;16.402;102.848;2023-04-25T06:52:03;37.90;99.90
19972;DHT22;10147;16.402;102.848;2023-04-25T06:54:36;37.80;99.90
19972;DHT22;10147;16.402;102.848;2023-04-25T06:57:18;37.90;99.90
19972;DHT22;10147;16.402;102.848;2023-04-25T06:59:49;37.90;99.90
19972;DHT22;10147;16.402;102.848;2023-04-25T07:02:19;37.90;99.90
19972;DHT22;10147;16.402;102.848;2023-04-25T07:04:53;37.90;99.40
19972;DHT22;10147;16.402;102.848;2023-04-25T07:07:26;38.00;99.20
19972;DHT22;10147;16.402;102.848;2023-04-25T07:09:57;38.00;98.00
19972;DHT22;10147;16.402;102.848;2023-04-25T07:12:28;38.20;99.30
19972;DHT22;10147;16.402;102.848;2023-04-25T07:14:58;38.10;99.60
19972;DHT22;10147;16.402;102.848;2023-04-25T07:17:29;37.90;98.50
19972;DHT22;10147;16.402;102.848;2023-04-25T07:19:59;37.90;99.90
19972;DHT22;10147;16.402;102.848;2023-04-25T07:22:30;38.10;98.80
19972;DHT22;10147;16.402;102.848;2023-04-25T07:25:01;38.00;97.80
19972;DHT22;10147;16.402;102.848;2023-04-25T07:27:31;38.30;97.40
19972;DHT22;10147;16.402;102.848;2023-04-25T07:30:11;38.40;97.40
19972;DHT22;10147;16.402;102.848;2023-04-25T07:32:41;38.30;97.10
19972;DHT22;10147;16.402;102.848;2023-04-25T07:35:11;38.20;97.40
19972;DHT22;10147;16.402;102.848;2023-04-25T07:37:42;38.30;97.00
19972;DHT22;10147;16.402;102.848;2023-04-25T07:40:18;37.90;97.60
19972;DHT22;10147;16.402;102.848;2023-04-25T07:42:52;38.00;96.70
19972;DHT22;10147;16.402;102.848;2023-04-25T07:45:34;38.30;96.30
19972;DHT22;10147;16.402;102.848;2023-04-25T07:48:05;38.30;95.60
19972;DHT22;10147;16.402;102.848;2023-04-25T07:50:38;38.30;96.10
19972;DHT22;10147;16.402;102.848;2023-04-25T07:53:08;38.50;96.40
19972;DHT22;10147;16.402;102.848;2023-04-25T07:55:45;38.50;96.00
19972;DHT22;10147;16.402;102.848;2023-04-25T07:58:17;38.50;97.10
19972;DHT22;10147;16.402;102.848;2023-04-25T08:00:56;38.60;97.00
19972;DHT22;10147;16.402;102.848;2023-04-25T08:03:45;38.60;96.20
19972;DHT22;10147;16.402;102.848;2023-04-25T08:06:22;38.50;96.40
19972;DHT22;10147;16.402;102.848;2023-04-25T08:09:07;38.50;96.50
19972;DHT22;10147;16.402;102.848;2023-04-25T08:11:41;38.60;96.90
19972;DHT22;10147;16.402;102.848;2023-04-25T08:14:15;38.40;96.60
19972;DHT22;10147;16.402;102.848;2023-04-25T08:16:45;38.50;97.80
19972;DHT22;10147;16.402;102.848;2023-04-25T08:19:16;38.50;96.40
19972;DHT22;10147;16.402;102.848;2023-04-25T08:21:46;38.40;95.60
19972;DHT22;10147;16.402;102.848;2023-04-25T08:24:26;38.30;95.40
19972;DHT22;10147;16.402;102.848;2023-04-25T08:26:57;38.00;94.90
19972;DHT22;10147;16.402;102.848;2023-04-25T08:29:28;38.10;96.00
19972;DHT22;10147;16.402;102.848;2023-04-25T08:31:58;38.10;95.70
19972;DHT22;10147;16.402;102.848;2023-04-25T08:34:29;38.10;96.30
19972;DHT22;10147;16.402;102.848;2023-04-25T08:37:03;37.90;96.60
19972;DHT22;10147;16.402;102.848;2023-04-25T08:39:40;38.00;95.80
19972;DHT22;10147;16.402;102.848;2023-04-25T08:42:31;38.00;95.80
19972;DHT22;10147;16.402;102.848;2023-04-25T08:45:05;38.10;93.60
19972;DHT22;10147;16.402;102.848;2023-04-25T08:47:39;37.80;96.50
19972;DHT22;10147;16.402;102.848;2023-04-25T08:50:11;38.00;95.70
19972;DHT22;10147;16.402;102.848;2023-04-25T08:52:44;37.90;94.80
19972;DHT22;10147;16.402;102.848;2023-04-25T08:55:19;37.70;94.80
19972;DHT22;10147;16.402;102.848;2023-04-25T08:57:55;37.40;95.60
19972;DHT22;10147;16.402;102.848;2023-04-25T09:00:26;37.40;96.80
19972;DHT22;10147;16.402;102.848;2023-04-25T09:02:57;37.50;96.90
19972;DHT22;10147;16.402;102.848;2023-04-25T09:05:33;37.40;96.80
19972;DHT22;10147;16.402;102.848;2023-04-25T09:08:03;37.40;95.70
19972;DHT22;10147;16.402;102.848;2023-04-25T09:10:34;37.30;96.40
19972;DHT22;10147;16.402;102.848;2023-04-25T09:13:12;37.40;95.70
19972;DHT22;10147;16.402;102.848;2023-04-25T09:16:02;37.20;95.90
19972;DHT22;10147;16.402;102.848;2023-04-25T09:18:51;37.30;97.20
19972;DHT22;10147;16.402;102.848;2023-04-25T09:21:22;37.20;96.80
19972;DHT22;10147;16.402;102.848;2023-04-25T09:23:53;37.20;97.10
19972;DHT22;10147;16.402;102.848;2023-04-25T09:26:23;37.20;96.60
19972;DHT22;10147;16.402;102.848;2023-04-25T09:29:07;37.20;96.30
19972;DHT22;10147;16.402;102.848;2023-04-25T09:31:40;37.20;96.10
19972;DHT22;10147;16.402;102.848;2023-04-25T09:34:12;37.10;95.80
19972;DHT22;10147;16.402;102.848;2023-04-25T09:36:54;37.10;96.20
19972;DHT22;10147;16.402;102.848;2023-04-25T09:39:45;37.00;96.10
19972;DHT22;10147;16.402;102.848;2023-04-25T09:42:17;36.80;97.40
19972;DHT22;10147;16.402;102.848;2023-04-25T09:44:47;36.80;97.30
19972;DHT22;10147;16.402;102.848;2023-04-25T09:47:22;36.80;96.90
19972;DHT22;10147;16.402;102.848;2023-04-25T09:49:54;36.60;97.10
19972;DHT22;10147;16.402;102.848;2023-04-25T09:52:25;36.70;97.60
19972;DHT22;10147;16.402;102.848;2023-04-25T09:55:03;36.70;96.30
19972;DHT22;10147;16.402;102.848;2023-04-25T09:57:36;36.60;97.30
19972;DHT22;10147;16.402;102.848;2023-04-25T10:00:10;36.50;97.40
19972;DHT22;10147;16.402;102.848;2023-04-25T10:02:43;36.50;97.00
19972;DHT22;10147;16.402;102.848;2023-04-25T10:05:37;36.60;96.80
19972;DHT22;10147;16.402;102.848;2023-04-25T10:08:08;36.50;96.90
19972;DHT22;10147;16.402;102.848;2023-04-25T10:10:40;36.60;97.80
19972;DHT22;10147;16.402;102.848;2023-04-25T10:13:11;36.80;97.50
19972;DHT22;10147;16.402;102.848;2023-04-25T10:15:44;36.80;97.00
19972;DHT22;10147;16.402;102.848;2023-04-25T10:18:15;36.80;97.00
19972;DHT22;10147;16.402;102.848;2023-04-25T10:20:47;36.80;97.00
19972;DHT22;10147;16.402;102.848;2023-04-25T10:23:20;36.70;96.60
19972;DHT22;10147;16.402;102.848;2023-04-25T10:25:52;36.50;97.20
19972;DHT22;10147;16.402;102.848;2023-04-25T10:28:25;36.40;96.90
19972;DHT22;10147;16.402;102.848;2023-04-25T10:31:03;36.20;97.90
19972;DHT22;10147;16.402;102.848;2023-04-25T10:33:39;36.20;98.80
19972;DHT22;10147;16.402;102.848;2023-04-25T10:36:21;36.20;98.90
19972;DHT22;10147;16.402;102.848;2023-04-25T10:38:51;36.00;99.40
19972;DHT22;10147;16.402;102.848;2023-04-25T10:41:22;35.90;98.40
19972;DHT22;10147;16.402;102.848;2023-04-25T10:44:00;35.90;98.70
19972;DHT22;10147;16.402;102.848;2023-04-25T10:46:33;36.00;99.40
19972;DHT22;10147;16.402;102.848;2023-04-25T10:49:05;36.00;98.80
19972;DHT22;10147;16.402;102.848;2023-04-25T10:51:40;35.90;99.10
19972;DHT22;10147;16.402;102.848;2023-04-25T10:54:22;35.90;99.60
19972;DHT22;10147;16.402;102.848;2023-04-25T10:56:55;35.90;99.90
19972;DHT22;10147;16.402;102.848;2023-04-25T10:59:28;35.80;99.80
19972;DHT22;10147;16.402;102.848;2023-04-25T11:01:58;35.70;99.90
19972;DHT22;10147;16.402;102.848;2023-04-25T11:04:32;35.60;99.90
19972;DHT22;10147;16.402;102.848;2023-04-25T11:10:28;35.70;99.90
19972;DHT22;10147;16.402;102.848;2023-04-25T11:13:01;35.50;99.90
19972;DHT22;10147;16.402;102.848;2023-04-25T11:15:31;35.50;99.90
19972;DHT22;10147;16.402;102.848;2023-04-25T11:18:01;35.60;99.90
19972;DHT22;10147;16.402;102.848;2023-04-25T11:20:31;35.50;99.90
19972;DHT22;10147;16.402;102.848;2023-04-25T11:23:01;35.50;99.90
19972;DHT22;10147;16.402;102.848;2023-04-25T11:25:36;35.40;99.90
19972;DHT22;10147;16.402;102.848;2023-04-25T11:28:07;35.30;99.90
19972;DHT22;10147;16.402;102.848;2023-04-25T11:30:37;35.30;99.90
19972;DHT22;10147;16.402;102.848;2023-04-25T11:33:09;35.30;99.90
19972;DHT22;10147;16.402;102.848;2023-04-25T11:35:41;35.20;99.90
19972;DHT22;10147;16.402;102.848;2023-04-25T11:38:11;35.20;99.90
19972;DHT22;10147;16.402;102.848;2023-04-25T11:40:41;35.00;99.90
19972;DHT22;10147;16.402;102.848;2023-04-25T11:43:12;35.10;99.90
19972;DHT22;10147;16.402;102.848;2023-04-25T11:45:48;35.10;99.90
19972;DHT22;10147;16.402;102.848;2023-04-25T11:48:19;35.10;99.90
19972;DHT22;10147;16.402;102.848;2023-04-25T11:50:54;35.00;99.90
19972;DHT22;10147;16.402;102.848;2023-04-25T11:53:27;35.10;99.90
19972;DHT22;10147;16.402;102.848;2023-04-25T11:55:57;35.10;99.90
19972;DHT22;10147;16.402;102.848;2023-04-25T11:58:27;35.00;99.90
19972;DHT22;10147;16.402;102.848;2023-04-25T12:01:00;35.00;99.90
19972;DHT22;10147;16.402;102.848;2023-04-25T12:03:32;34.80;99.90
19972;DHT22;10147;16.402;102.848;2023-04-25T12:06:05;34.80;99.90
19972;DHT22;10147;16.402;102.848;2023-04-25T12:08:36;34.80;99.90
19972;DHT22;10147;16.402;102.848;2023-04-25T12:11:21;34.70;99.90
19972;DHT22;10147;16.402;102.848;2023-04-25T12:13:54;34.80;99.90
19972;DHT22;10147;16.402;102.848;2023-04-25T12:16:25;34.70;99.90
19972;DHT22;10147;16.402;102.848;2023-04-25T12:18:56;34.70;99.90
19972;DHT22;10147;16.402;102.848;2023-04-25T12:21:28;34.70;99.90
19972;DHT22;10147;16.402;102.848;2023-04-25T12:24:22;34.70;99.90
19972;DHT22;10147;16.402;102.848;2023-04-25T12:27:05;34.60;99.90
19972;DHT22;10147;16.402;102.848;2023-04-25T12:29:35;34.50;99.90
19972;DHT22;10147;16.402;102.848;2023-04-25T12:32:16;34.40;99.90
19972;DHT22;10147;16.402;102.848;2023-04-25T12:34:47;34.30;99.90
19972;DHT22;10147;16.402;102.848;2023-04-25T12:37:17;34.30;99.90
19972;DHT22;10147;16.402;102.848;2023-04-25T12:39:46;34.20;99.90
19972;DHT22;10147;16.402;102.848;2023-04-25T12:42:16;34.10;99.90
19972;DHT22;10147;16.402;102.848;2023-04-25T12:44:46;34.10;99.90
19972;DHT22;10147;16.402;102.848;2023-04-25T12:47:16;34.10;99.90
19972;DHT22;10147;16.402;102.848;2023-04-25T12:49:46;34.10;99.90
19972;DHT22;10147;16.402;102.848;2023-04-25T12:52:16;34.20;99.90
19972;DHT22;10147;16.402;102.848;2023-04-25T12:54:46;34.10;99.90
19972;DHT22;10147;16.402;102.848;2023-04-25T12:57:16;34.20;99.90
19972;DHT22;10147;16.402;102.848;2023-04-25T12:59:49;34.20;99.90
19972;DHT22;10147;16.402;102.848;2023-04-25T13:02:20;34.00;99.90
19972;DHT22;10147;16.402;102.848;2023-04-25T13:04:50;34.00;99.90
19972;DHT22;10147;16.402;102.848;2023-04-25T13:07:20;33.90;99.90
19972;DHT22;10147;16.402;102.848;2023-04-25T13:09:50;33.80;99.90
19972;DHT22;10147;16.402;102.848;2023-04-25T13:12:20;33.70;99.90
19972;DHT22;10147;16.402;102.848;2023-04-25T13:14:50;33.60;99.90
19972;DHT22;10147;16.402;102.848;2023-04-25T13:17:20;33.40;99.90
19972;DHT22;10147;16.402;102.848;2023-04-25T13:19:50;33.40;99.90
19972;DHT22;10147;16.402;102.848;2023-04-25T13:22:19;33.40;99.90
19972;DHT22;10147;16.402;102.848;2023-04-25T13:24:49;33.40;99.90
19972;DHT22;10147;16.402;102.848;2023-04-25T13:27:19;33.40;99.90
19972;DHT22;10147;16.402;102.848;2023-04-25T13:29:51;33.20;99.90
19972;DHT22;10147;16.402;102.848;2023-04-25T13:32:20;33.10;99.90
19972;DHT22;10147;16.402;102.848;2023-04-25T13:34:53;33.30;99.90
19972;DHT22;10147;16.402;102.848;2023-04-25T13:37:23;33.20;99.90
19972;DHT22;10147;16.402;102.848;2023-04-25T13:39:53;33.40;99.90
19972;DHT22;10147;16.402;102.848;2023-04-25T13:42:25;33.40;99.90
19972;DHT22;10147;16.402;102.848;2023-04-25T13:44:55;33.30;99.90
19972;DHT22;10147;16.402;102.848;2023-04-25T13:47:26;33.20;99.90
19972;DHT22;10147;16.402;102.848;2023-04-25T13:49:56;33.10;99.90
19972;DHT22;10147;16.402;102.848;2023-04-25T13:52:26;33.10;99.90
19972;DHT22;10147;16.402;102.848;2023-04-25T13:54:56;33.00;99.90
19972;DHT22;10147;16.402;102.848;2023-04-25T13:57:26;32.90;99.90
19972;DHT22;10147;16.402;102.848;2023-04-25T13:59:56;33.00;99.90
19972;DHT22;10147;16.402;102.848;2023-04-25T14:02:26;33.00;99.90
19972;DHT22;10147;16.402;102.848;2023-04-25T14:04:56;32.90;99.90
19972;DHT22;10147;16.402;102.848;2023-04-25T14:07:26;32.90;99.90
19972;DHT22;10147;16.402;102.848;2023-04-25T14:09:57;32.90;99.90
19972;DHT22;10147;16.402;102.848;2023-04-25T14:12:27;32.90;99.90
19972;DHT22;10147;16.402;102.848;2023-04-25T14:14:56;32.90;99.90
19972;DHT22;10147;16.402;102.848;2023-04-25T14:17:27;32.80;99.90
19972;DHT22;10147;16.402;102.848;2023-04-25T14:19:57;32.80;99.90
19972;DHT22;10147;16.402;102.848;2023-04-25T14:22:26;32.80;99.90
19972;DHT22;10147;16.402;102.848;2023-04-25T14:24:56;32.80;99.90
19972;DHT22;10147;16.402;102.848;2023-04-25T14:27:27;32.80;99.90
19972;DHT22;10147;16.402;102.848;2023-04-25T14:29:57;32.80;99.90
19972;DHT22;10147;16.402;102.848;2023-04-25T14:32:27;32.60;99.90
19972;DHT22;10147;16.402;102.848;2023-04-25T14:34:56;32.40;99.90
19972;DHT22;10147;16.402;102.848;2023-04-25T14:37:26;32.60;99.90
19972;DHT22;10147;16.402;102.848;2023-04-25T14:39:56;32.60;99.90
19972;DHT22;10147;16.402;102.848;2023-04-25T14:42:26;32.60;99.90
19972;DHT22;10147;16.402;102.848;2023-04-25T14:44:55;32.70;99.90
19972;DHT22;10147;16.402;102.848;2023-04-25T14:47:25;32.70;99.90
19972;DHT22;10147;16.402;102.848;2023-04-25T14:49:55;32.40;99.90
19972;DHT22;10147;16.402;102.848;2023-04-25T14:52:25;32.10;99.90
19972;DHT22;10147;16.402;102.848;2023-04-25T14:54:55;32.10;99.90
19972;DHT22;10147;16.402;102.848;2023-04-25T14:57:25;32.10;99.90
19972;DHT22;10147;16.402;102.848;2023-04-25T14:59:55;32.40;99.90
19972;DHT22;10147;16.402;102.848;2023-04-25T15:02:25;32.40;99.90
19972;DHT22;10147;16.402;102.848;2023-04-25T15:04:55;32.30;99.90
19972;DHT22;10147;16.402;102.848;2023-04-25T15:07:26;32.00;99.90
19972;DHT22;10147;16.402;102.848;2023-04-25T15:09:55;32.00;99.90
19972;DHT22;10147;16.402;102.848;2023-04-25T15:12:26;32.10;99.90
19972;DHT22;10147;16.402;102.848;2023-04-25T15:14:57;32.20;99.90
19972;DHT22;10147;16.402;102.848;2023-04-25T15:17:27;32.20;99.90
19972;DHT22;10147;16.402;102.848;2023-04-25T15:20:00;31.80;99.90
19972;DHT22;10147;16.402;102.848;2023-04-25T15:22:30;31.60;99.90
19972;DHT22;10147;16.402;102.848;2023-04-25T15:25:00;31.90;99.90
19972;DHT22;10147;16.402;102.848;2023-04-25T15:27:29;32.00;99.90
19972;DHT22;10147;16.402;102.848;2023-04-25T15:30:00;32.10;99.90
19972;DHT22;10147;16.402;102.848;2023-04-25T15:32:29;32.10;99.90
19972;DHT22;10147;16.402;102.848;2023-04-25T15:35:05;32.10;99.90
19972;DHT22;10147;16.402;102.848;2023-04-25T15:37:36;32.20;99.90
19972;DHT22;10147;16.402;102.848;2023-04-25T15:40:09;32.20;99.90
19972;DHT22;10147;16.402;102.848;2023-04-25T15:42:49;32.10;99.90
19972;DHT22;10147;16.402;102.848;2023-04-25T15:45:24;32.10;99.90